sensor_id;sensor_type;location;lat;lon;timestamp;P1;durP1;ratioP1;P2;durP2;ratioP2
42682;SDS011;28293;50.930;3.464;2022-11-25T00:02:17;6.50;;;2.40;;
42682;SDS011;28293;50.930;3.464;2022-11-25T00:04:44;5.28;;;2.13;;
42682;SDS011;28293;50.930;3.464;2022-11-25T00:07:09;9.65;;;2.60;;
42682;SDS011;28293;50.930;3.464;2022-11-25T00:09:35;7.80;;;2.28;;
42682;SDS011;28293;50.930;3.464;2022-11-25T00:12:01;10.00;;;2.33;;
42682;SDS011;28293;50.930;3.464;2022-11-25T00:14:26;5.85;;;1.50;;
42682;SDS011;28293;50.930;3.464;2022-11-25T00:16:52;7.70;;;1.77;;
42682;SDS011;28293;50.930;3.464;2022-11-25T00:19:17;6.97;;;1.65;;
42682;SDS011;28293;50.930;3.464;2022-11-25T00:21:43;4.10;;;1.67;;
42682;SDS011;28293;50.930;3.464;2022-11-25T00:24:09;5.45;;;2.03;;
42682;SDS011;28293;50.930;3.464;2022-11-25T00:26:38;6.88;;;2.30;;
42682;SDS011;28293;50.930;3.464;2022-11-25T00:29:05;9.68;;;2.92;;
42682;SDS011;28293;50.930;3.464;2022-11-25T00:31:32;5.03;;;1.85;;
42682;SDS011;28293;50.930;3.464;2022-11-25T00:33:59;7.50;;;1.77;;
42682;SDS011;28293;50.930;3.464;2022-11-25T00:36:29;6.15;;;2.15;;
42682;SDS011;28293;50.930;3.464;2022-11-25T00:38:58;6.80;;;2.25;;
42682;SDS011;28293;50.930;3.464;2022-11-25T00:41:25;8.10;;;2.15;;
42682;SDS011;28293;50.930;3.464;2022-11-25T00:44:11;7.45;;;2.13;;
42682;SDS011;28293;50.930;3.464;2022-11-25T00:46:57;9.70;;;2.58;;
42682;SDS011;28293;50.930;3.464;2022-11-25T00:49:22;5.40;;;1.75;;
42682;SDS011;28293;50.930;3.464;2022-11-25T00:51:49;9.73;;;3.40;;
42682;SDS011;28293;50.930;3.464;2022-11-25T00:54:14;4.90;;;2.00;;
42682;SDS011;28293;50.930;3.464;2022-11-25T00:56:40;7.72;;;2.20;;
42682;SDS011;28293;50.930;3.464;2022-11-25T00:59:06;5.75;;;2.00;;
42682;SDS011;28293;50.930;3.464;2022-11-25T01:01:32;6.00;;;1.83;;
42682;SDS011;28293;50.930;3.464;2022-11-25T01:03:58;6.28;;;2.30;;
42682;SDS011;28293;50.930;3.464;2022-11-25T01:06:24;8.25;;;2.58;;
42682;SDS011;28293;50.930;3.464;2022-11-25T01:08:50;18.17;;;4.95;;
42682;SDS011;28293;50.930;3.464;2022-11-25T01:11:17;7.70;;;2.65;;
42682;SDS011;28293;50.930;3.464;2022-11-25T01:13:44;5.55;;;1.45;;
42682;SDS011;28293;50.930;3.464;2022-11-25T01:16:11;5.18;;;2.13;;
42682;SDS011;28293;50.930;3.464;2022-11-25T01:18:42;7.70;;;2.47;;
42682;SDS011;28293;50.930;3.464;2022-11-25T01:21:09;7.95;;;2.85;;
42682;SDS011;28293;50.930;3.464;2022-11-25T01:23:37;7.78;;;2.35;;
42682;SDS011;28293;50.930;3.464;2022-11-25T01:26:04;7.55;;;2.70;;
42682;SDS011;28293;50.930;3.464;2022-11-25T01:28:31;12.70;;;4.65;;
42682;SDS011;28293;50.930;3.464;2022-11-25T01:31:07;13.77;;;5.63;;
42682;SDS011;28293;50.930;3.464;2022-11-25T01:33:33;10.80;;;4.07;;
42682;SDS011;28293;50.930;3.464;2022-11-25T01:36:00;8.30;;;3.38;;
42682;SDS011;28293;50.930;3.464;2022-11-25T01:38:30;7.22;;;1.90;;
42682;SDS011;28293;50.930;3.464;2022-11-25T01:40:57;5.13;;;2.17;;
42682;SDS011;28293;50.930;3.464;2022-11-25T01:43:23;6.78;;;1.80;;
42682;SDS011;28293;50.930;3.464;2022-11-25T01:45:51;7.72;;;2.28;;
42682;SDS011;28293;50.930;3.464;2022-11-25T01:48:27;5.60;;;1.80;;
42682;SDS011;28293;50.930;3.464;2022-11-25T01:51:00;5.35;;;2.10;;
42682;SDS011;28293;50.930;3.464;2022-11-25T01:53:26;4.80;;;1.67;;
42682;SDS011;28293;50.930;3.464;2022-11-25T01:55:56;6.13;;;1.85;;
42682;SDS011;28293;50.930;3.464;2022-11-25T01:58:27;4.75;;;1.52;;
42682;SDS011;28293;50.930;3.464;2022-11-25T02:00:57;3.92;;;1.60;;
42682;SDS011;28293;50.930;3.464;2022-11-25T02:03:27;5.47;;;1.40;;
42682;SDS011;28293;50.930;3.464;2022-11-25T02:08:55;6.88;;;1.90;;
42682;SDS011;28293;50.930;3.464;2022-11-25T02:11:26;7.03;;;2.00;;
42682;SDS011;28293;50.930;3.464;2022-11-25T02:13:54;5.57;;;1.70;;
42682;SDS011;28293;50.930;3.464;2022-11-25T02:16:21;6.50;;;2.22;;
42682;SDS011;28293;50.930;3.464;2022-11-25T02:18:48;6.32;;;1.92;;
42682;SDS011;28293;50.930;3.464;2022-11-25T02:21:16;8.60;;;1.98;;
42682;SDS011;28293;50.930;3.464;2022-11-25T02:26:19;9.02;;;2.20;;
42682;SDS011;28293;50.930;3.464;2022-11-25T02:28:45;6.55;;;1.90;;
42682;SDS011;28293;50.930;3.464;2022-11-25T02:31:11;5.80;;;2.17;;
42682;SDS011;28293;50.930;3.464;2022-11-25T02:33:37;7.93;;;2.20;;
42682;SDS011;28293;50.930;3.464;2022-11-25T02:36:05;6.10;;;1.88;;
42682;SDS011;28293;50.930;3.464;2022-11-25T02:38:41;7.35;;;2.40;;
42682;SDS011;28293;50.930;3.464;2022-11-25T02:41:10;10.60;;;2.60;;
42682;SDS011;28293;50.930;3.464;2022-11-25T02:43:39;8.02;;;2.50;;
42682;SDS011;28293;50.930;3.464;2022-11-25T02:46:09;10.45;;;2.70;;
42682;SDS011;28293;50.930;3.464;2022-11-25T02:48:40;6.40;;;2.33;;
42682;SDS011;28293;50.930;3.464;2022-11-25T02:51:08;10.40;;;2.80;;
42682;SDS011;28293;50.930;3.464;2022-11-25T02:53:36;10.65;;;3.03;;
42682;SDS011;28293;50.930;3.464;2022-11-25T02:56:02;10.50;;;2.83;;
42682;SDS011;28293;50.930;3.464;2022-11-25T02:58:28;10.77;;;2.83;;
42682;SDS011;28293;50.930;3.464;2022-11-25T03:00:54;9.63;;;2.83;;
42682;SDS011;28293;50.930;3.464;2022-11-25T03:03:19;11.07;;;2.88;;
42682;SDS011;28293;50.930;3.464;2022-11-25T03:05:45;14.18;;;2.78;;
42682;SDS011;28293;50.930;3.464;2022-11-25T03:08:11;10.57;;;2.88;;
42682;SDS011;28293;50.930;3.464;2022-11-25T03:10:37;14.35;;;2.90;;
42682;SDS011;28293;50.930;3.464;2022-11-25T03:13:03;13.23;;;2.75;;
42682;SDS011;28293;50.930;3.464;2022-11-25T03:15:29;13.07;;;3.25;;
42682;SDS011;28293;50.930;3.464;2022-11-25T03:17:55;10.30;;;3.33;;
42682;SDS011;28293;50.930;3.464;2022-11-25T03:20:21;13.18;;;3.47;;
42682;SDS011;28293;50.930;3.464;2022-11-25T03:22:47;11.75;;;3.13;;
42682;SDS011;28293;50.930;3.464;2022-11-25T03:25:13;9.63;;;2.97;;
42682;SDS011;28293;50.930;3.464;2022-11-25T03:27:39;9.57;;;2.72;;
42682;SDS011;28293;50.930;3.464;2022-11-25T03:30:08;9.05;;;2.58;;
42682;SDS011;28293;50.930;3.464;2022-11-25T03:32:36;10.18;;;3.00;;
42682;SDS011;28293;50.930;3.464;2022-11-25T03:35:02;11.75;;;2.70;;
42682;SDS011;28293;50.930;3.464;2022-11-25T03:37:29;8.82;;;2.53;;
42682;SDS011;28293;50.930;3.464;2022-11-25T03:39:55;8.48;;;2.60;;
42682;SDS011;28293;50.930;3.464;2022-11-25T03:42:20;9.93;;;2.55;;
42682;SDS011;28293;50.930;3.464;2022-11-25T03:44:46;8.50;;;2.40;;
42682;SDS011;28293;50.930;3.464;2022-11-25T03:47:11;10.68;;;3.05;;
42682;SDS011;28293;50.930;3.464;2022-11-25T03:49:37;12.35;;;2.92;;
42682;SDS011;28293;50.930;3.464;2022-11-25T03:52:03;8.27;;;2.50;;
42682;SDS011;28293;50.930;3.464;2022-11-25T03:54:29;9.23;;;3.05;;
42682;SDS011;28293;50.930;3.464;2022-11-25T03:56:55;8.40;;;2.60;;
42682;SDS011;28293;50.930;3.464;2022-11-25T03:59:20;11.70;;;2.83;;
42682;SDS011;28293;50.930;3.464;2022-11-25T04:01:46;11.13;;;2.65;;
42682;SDS011;28293;50.930;3.464;2022-11-25T04:04:11;8.10;;;2.53;;
42682;SDS011;28293;50.930;3.464;2022-11-25T04:06:37;8.77;;;2.47;;
42682;SDS011;28293;50.930;3.464;2022-11-25T04:09:03;9.82;;;2.70;;
42682;SDS011;28293;50.930;3.464;2022-11-25T04:11:30;10.10;;;2.60;;
42682;SDS011;28293;50.930;3.464;2022-11-25T04:14:14;10.10;;;2.80;;
42682;SDS011;28293;50.930;3.464;2022-11-25T04:16:40;9.77;;;2.70;;
42682;SDS011;28293;50.930;3.464;2022-11-25T04:19:06;9.27;;;2.50;;
42682;SDS011;28293;50.930;3.464;2022-11-25T04:21:32;11.48;;;2.85;;
42682;SDS011;28293;50.930;3.464;2022-11-25T04:23:58;12.27;;;3.22;;
42682;SDS011;28293;50.930;3.464;2022-11-25T04:26:23;7.18;;;3.00;;
42682;SDS011;28293;50.930;3.464;2022-11-25T04:28:49;10.48;;;2.83;;
42682;SDS011;28293;50.930;3.464;2022-11-25T04:31:14;10.10;;;3.40;;
42682;SDS011;28293;50.930;3.464;2022-11-25T04:33:40;8.75;;;3.00;;
42682;SDS011;28293;50.930;3.464;2022-11-25T04:36:06;10.43;;;2.67;;
42682;SDS011;28293;50.930;3.464;2022-11-25T04:38:32;8.13;;;2.60;;
42682;SDS011;28293;50.930;3.464;2022-11-25T04:40:58;6.78;;;2.50;;
42682;SDS011;28293;50.930;3.464;2022-11-25T04:43:23;11.10;;;3.45;;
42682;SDS011;28293;50.930;3.464;2022-11-25T04:45:49;9.52;;;3.08;;
42682;SDS011;28293;50.930;3.464;2022-11-25T04:48:16;5.80;;;2.83;;
42682;SDS011;28293;50.930;3.464;2022-11-25T04:50:42;10.25;;;2.70;;
42682;SDS011;28293;50.930;3.464;2022-11-25T04:53:08;10.27;;;2.50;;
42682;SDS011;28293;50.930;3.464;2022-11-25T04:55:34;8.80;;;2.53;;
42682;SDS011;28293;50.930;3.464;2022-11-25T04:58:00;6.03;;;2.00;;
42682;SDS011;28293;50.930;3.464;2022-11-25T05:00:25;8.10;;;2.17;;
42682;SDS011;28293;50.930;3.464;2022-11-25T05:02:51;10.63;;;2.50;;
42682;SDS011;28293;50.930;3.464;2022-11-25T05:05:17;8.23;;;2.45;;
42682;SDS011;28293;50.930;3.464;2022-11-25T05:07:43;7.28;;;2.30;;
42682;SDS011;28293;50.930;3.464;2022-11-25T05:10:09;5.35;;;2.50;;
42682;SDS011;28293;50.930;3.464;2022-11-25T05:12:34;6.53;;;2.22;;
42682;SDS011;28293;50.930;3.464;2022-11-25T05:15:00;9.68;;;2.65;;
42682;SDS011;28293;50.930;3.464;2022-11-25T05:17:28;6.68;;;2.42;;
42682;SDS011;28293;50.930;3.464;2022-11-25T05:19:56;5.97;;;2.20;;
42682;SDS011;28293;50.930;3.464;2022-11-25T05:22:23;8.45;;;3.10;;
42682;SDS011;28293;50.930;3.464;2022-11-25T05:24:51;7.32;;;2.50;;
42682;SDS011;28293;50.930;3.464;2022-11-25T05:27:18;8.25;;;2.53;;
42682;SDS011;28293;50.930;3.464;2022-11-25T05:29:45;6.78;;;2.20;;
42682;SDS011;28293;50.930;3.464;2022-11-25T05:32:11;9.60;;;2.30;;
42682;SDS011;28293;50.930;3.464;2022-11-25T05:34:36;6.68;;;2.50;;
42682;SDS011;28293;50.930;3.464;2022-11-25T05:37:03;10.77;;;2.97;;
42682;SDS011;28293;50.930;3.464;2022-11-25T05:39:29;13.02;;;2.90;;
42682;SDS011;28293;50.930;3.464;2022-11-25T05:41:54;10.25;;;2.50;;
42682;SDS011;28293;50.930;3.464;2022-11-25T05:44:20;12.75;;;3.10;;
42682;SDS011;28293;50.930;3.464;2022-11-25T05:46:46;10.20;;;2.83;;
42682;SDS011;28293;50.930;3.464;2022-11-25T05:49:13;8.10;;;3.17;;
42682;SDS011;28293;50.930;3.464;2022-11-25T05:51:39;9.57;;;2.97;;
42682;SDS011;28293;50.930;3.464;2022-11-25T05:54:05;10.63;;;3.33;;
42682;SDS011;28293;50.930;3.464;2022-11-25T05:56:31;10.20;;;3.55;;
42682;SDS011;28293;50.930;3.464;2022-11-25T05:58:58;14.18;;;3.85;;
42682;SDS011;28293;50.930;3.464;2022-11-25T06:01:24;10.50;;;3.35;;
42682;SDS011;28293;50.930;3.464;2022-11-25T06:03:50;8.15;;;3.30;;
42682;SDS011;28293;50.930;3.464;2022-11-25T06:06:16;10.27;;;3.90;;
42682;SDS011;28293;50.930;3.464;2022-11-25T06:08:42;14.20;;;4.10;;
42682;SDS011;28293;50.930;3.464;2022-11-25T06:11:10;10.70;;;3.95;;
42682;SDS011;28293;50.930;3.464;2022-11-25T06:13:38;13.30;;;4.35;;
42682;SDS011;28293;50.930;3.464;2022-11-25T06:16:08;10.48;;;3.65;;
42682;SDS011;28293;50.930;3.464;2022-11-25T06:18:39;11.60;;;4.38;;
42682;SDS011;28293;50.930;3.464;2022-11-25T06:21:05;9.90;;;3.80;;
42682;SDS011;28293;50.930;3.464;2022-11-25T06:23:31;12.07;;;4.75;;
42682;SDS011;28293;50.930;3.464;2022-11-25T06:26:07;10.60;;;3.83;;
42682;SDS011;28293;50.930;3.464;2022-11-25T06:28:37;12.43;;;4.07;;
42682;SDS011;28293;50.930;3.464;2022-11-25T06:31:04;10.65;;;4.40;;
42682;SDS011;28293;50.930;3.464;2022-11-25T06:33:30;11.57;;;4.75;;
42682;SDS011;28293;50.930;3.464;2022-11-25T06:35:56;12.10;;;4.57;;
42682;SDS011;28293;50.930;3.464;2022-11-25T06:38:22;11.57;;;4.88;;
42682;SDS011;28293;50.930;3.464;2022-11-25T06:40:48;11.20;;;4.40;;
42682;SDS011;28293;50.930;3.464;2022-11-25T06:43:13;12.52;;;4.40;;
42682;SDS011;28293;50.930;3.464;2022-11-25T06:45:39;12.85;;;4.28;;
42682;SDS011;28293;50.930;3.464;2022-11-25T06:48:04;15.32;;;5.63;;
42682;SDS011;28293;50.930;3.464;2022-11-25T06:50:30;12.40;;;4.63;;
42682;SDS011;28293;50.930;3.464;2022-11-25T06:52:56;18.05;;;5.50;;
42682;SDS011;28293;50.930;3.464;2022-11-25T06:55:24;15.60;;;5.00;;
42682;SDS011;28293;50.930;3.464;2022-11-25T06:57:49;10.45;;;5.03;;
42682;SDS011;28293;50.930;3.464;2022-11-25T07:00:15;13.10;;;5.55;;
42682;SDS011;28293;50.930;3.464;2022-11-25T07:02:41;15.35;;;5.72;;
42682;SDS011;28293;50.930;3.464;2022-11-25T07:05:07;17.98;;;6.43;;
42682;SDS011;28293;50.930;3.464;2022-11-25T07:07:33;18.05;;;6.60;;
42682;SDS011;28293;50.930;3.464;2022-11-25T07:09:58;16.70;;;7.20;;
42682;SDS011;28293;50.930;3.464;2022-11-25T07:12:24;19.52;;;8.02;;
42682;SDS011;28293;50.930;3.464;2022-11-25T07:14:50;24.92;;;8.60;;
42682;SDS011;28293;50.930;3.464;2022-11-25T07:17:15;18.85;;;9.18;;
42682;SDS011;28293;50.930;3.464;2022-11-25T07:19:41;23.77;;;10.00;;
42682;SDS011;28293;50.930;3.464;2022-11-25T07:22:09;19.27;;;9.38;;
42682;SDS011;28293;50.930;3.464;2022-11-25T07:24:35;21.20;;;9.93;;
42682;SDS011;28293;50.930;3.464;2022-11-25T07:27:01;16.10;;;8.57;;
42682;SDS011;28293;50.930;3.464;2022-11-25T07:29:29;17.65;;;8.80;;
42682;SDS011;28293;50.930;3.464;2022-11-25T07:31:55;15.95;;;7.57;;
42682;SDS011;28293;50.930;3.464;2022-11-25T07:34:21;18.95;;;7.50;;
42682;SDS011;28293;50.930;3.464;2022-11-25T07:36:48;20.67;;;7.88;;
42682;SDS011;28293;50.930;3.464;2022-11-25T07:39:15;14.27;;;6.93;;
42682;SDS011;28293;50.930;3.464;2022-11-25T07:41:43;19.77;;;6.72;;
42682;SDS011;28293;50.930;3.464;2022-11-25T07:44:11;14.30;;;6.22;;
42682;SDS011;28293;50.930;3.464;2022-11-25T07:46:45;15.82;;;6.13;;
42682;SDS011;28293;50.930;3.464;2022-11-25T07:49:13;17.48;;;6.20;;
42682;SDS011;28293;50.930;3.464;2022-11-25T07:51:41;12.95;;;6.32;;
42682;SDS011;28293;50.930;3.464;2022-11-25T07:54:11;19.80;;;6.68;;
42682;SDS011;28293;50.930;3.464;2022-11-25T07:56:37;25.17;;;11.55;;
42682;SDS011;28293;50.930;3.464;2022-11-25T07:59:05;28.98;;;18.88;;
42682;SDS011;28293;50.930;3.464;2022-11-25T08:01:32;20.02;;;10.52;;
42682;SDS011;28293;50.930;3.464;2022-11-25T08:03:58;24.92;;;13.25;;
42682;SDS011;28293;50.930;3.464;2022-11-25T08:06:24;22.38;;;12.27;;
42682;SDS011;28293;50.930;3.464;2022-11-25T08:08:54;28.23;;;13.68;;
42682;SDS011;28293;50.930;3.464;2022-11-25T08:11:25;27.05;;;20.48;;
42682;SDS011;28293;50.930;3.464;2022-11-25T08:13:54;21.63;;;12.15;;
42682;SDS011;28293;50.930;3.464;2022-11-25T08:16:21;20.25;;;10.32;;
42682;SDS011;28293;50.930;3.464;2022-11-25T08:18:48;22.13;;;15.07;;
42682;SDS011;28293;50.930;3.464;2022-11-25T08:21:14;13.90;;;7.68;;
42682;SDS011;28293;50.930;3.464;2022-11-25T08:23:42;35.30;;;20.60;;
42682;SDS011;28293;50.930;3.464;2022-11-25T08:26:19;23.80;;;12.70;;
42682;SDS011;28293;50.930;3.464;2022-11-25T08:28:47;35.15;;;19.67;;
42682;SDS011;28293;50.930;3.464;2022-11-25T08:31:15;23.88;;;12.38;;
42682;SDS011;28293;50.930;3.464;2022-11-25T08:33:45;19.65;;;10.48;;
42682;SDS011;28293;50.930;3.464;2022-11-25T08:36:12;24.50;;;14.68;;
42682;SDS011;28293;50.930;3.464;2022-11-25T08:38:38;24.15;;;9.23;;
42682;SDS011;28293;50.930;3.464;2022-11-25T08:41:08;21.05;;;8.23;;
42682;SDS011;28293;50.930;3.464;2022-11-25T08:43:37;19.42;;;6.53;;
42682;SDS011;28293;50.930;3.464;2022-11-25T08:46:05;19.20;;;6.50;;
42682;SDS011;28293;50.930;3.464;2022-11-25T08:48:33;18.35;;;6.00;;
42682;SDS011;28293;50.930;3.464;2022-11-25T08:50:59;19.08;;;6.75;;
42682;SDS011;28293;50.930;3.464;2022-11-25T08:53:25;19.98;;;5.85;;
42682;SDS011;28293;50.930;3.464;2022-11-25T08:55:51;17.27;;;6.18;;
42682;SDS011;28293;50.930;3.464;2022-11-25T08:58:17;14.40;;;5.35;;
42682;SDS011;28293;50.930;3.464;2022-11-25T09:00:43;17.88;;;7.15;;
42682;SDS011;28293;50.930;3.464;2022-11-25T09:03:09;20.52;;;6.25;;
42682;SDS011;28293;50.930;3.464;2022-11-25T09:05:39;13.60;;;5.65;;
42682;SDS011;28293;50.930;3.464;2022-11-25T09:08:07;20.55;;;5.95;;
42682;SDS011;28293;50.930;3.464;2022-11-25T09:10:34;14.70;;;5.57;;
42682;SDS011;28293;50.930;3.464;2022-11-25T09:13:00;15.27;;;6.72;;
42682;SDS011;28293;50.930;3.464;2022-11-25T09:15:26;19.05;;;7.28;;
42682;SDS011;28293;50.930;3.464;2022-11-25T09:17:59;15.93;;;6.25;;
42682;SDS011;28293;50.930;3.464;2022-11-25T09:20:26;16.48;;;5.72;;
42682;SDS011;28293;50.930;3.464;2022-11-25T09:22:53;14.98;;;5.65;;
42682;SDS011;28293;50.930;3.464;2022-11-25T09:25:20;14.68;;;6.13;;
42682;SDS011;28293;50.930;3.464;2022-11-25T09:27:47;15.02;;;5.63;;
42682;SDS011;28293;50.930;3.464;2022-11-25T09:30:13;16.45;;;6.50;;
42682;SDS011;28293;50.930;3.464;2022-11-25T09:32:39;16.38;;;5.82;;
42682;SDS011;28293;50.930;3.464;2022-11-25T09:35:06;16.92;;;6.25;;
42682;SDS011;28293;50.930;3.464;2022-11-25T09:37:32;16.15;;;6.85;;
42682;SDS011;28293;50.930;3.464;2022-11-25T09:39:57;19.13;;;6.70;;
42682;SDS011;28293;50.930;3.464;2022-11-25T09:45:20;15.98;;;5.97;;
42682;SDS011;28293;50.930;3.464;2022-11-25T09:56:28;19.10;;;6.95;;
42682;SDS011;28293;50.930;3.464;2022-11-25T09:59:17;20.75;;;6.22;;
42682;SDS011;28293;50.930;3.464;2022-11-25T10:04:16;17.02;;;5.40;;
42682;SDS011;28293;50.930;3.464;2022-11-25T10:06:54;19.92;;;6.50;;
42682;SDS011;28293;50.930;3.464;2022-11-25T10:09:26;14.05;;;6.10;;
42682;SDS011;28293;50.930;3.464;2022-11-25T10:11:55;17.35;;;5.88;;
42682;SDS011;28293;50.930;3.464;2022-11-25T10:14:28;18.58;;;5.65;;
42682;SDS011;28293;50.930;3.464;2022-11-25T10:20:02;13.60;;;4.35;;
42682;SDS011;28293;50.930;3.464;2022-11-25T10:22:40;14.35;;;4.72;;
42682;SDS011;28293;50.930;3.464;2022-11-25T10:25:13;12.50;;;4.53;;
42682;SDS011;28293;50.930;3.464;2022-11-25T10:30:23;12.57;;;4.28;;
42682;SDS011;28293;50.930;3.464;2022-11-25T10:32:51;15.05;;;4.20;;
42682;SDS011;28293;50.930;3.464;2022-11-25T10:35:42;10.30;;;3.80;;
42682;SDS011;28293;50.930;3.464;2022-11-25T10:38:27;16.60;;;3.90;;
42682;SDS011;28293;50.930;3.464;2022-11-25T10:41:01;15.88;;;4.28;;
42682;SDS011;28293;50.930;3.464;2022-11-25T10:43:28;13.48;;;3.85;;
42682;SDS011;28293;50.930;3.464;2022-11-25T10:46:00;19.77;;;5.35;;
42682;SDS011;28293;50.930;3.464;2022-11-25T10:51:35;14.20;;;3.45;;
42682;SDS011;28293;50.930;3.464;2022-11-25T10:56:51;14.20;;;5.30;;
42682;SDS011;28293;50.930;3.464;2022-11-25T10:59:29;15.32;;;4.68;;
42682;SDS011;28293;50.930;3.464;2022-11-25T11:07:42;16.15;;;4.32;;
42682;SDS011;28293;50.930;3.464;2022-11-25T11:10:22;15.23;;;4.68;;
42682;SDS011;28293;50.930;3.464;2022-11-25T11:12:54;16.90;;;4.80;;
42682;SDS011;28293;50.930;3.464;2022-11-25T11:20:57;15.65;;;4.47;;
42682;SDS011;28293;50.930;3.464;2022-11-25T11:23:24;15.43;;;4.57;;
42682;SDS011;28293;50.930;3.464;2022-11-25T11:33:50;16.90;;;5.45;;
42682;SDS011;28293;50.930;3.464;2022-11-25T11:47:57;17.85;;;5.30;;
42682;SDS011;28293;50.930;3.464;2022-11-25T11:53:18;16.77;;;5.83;;
42682;SDS011;28293;50.930;3.464;2022-11-25T12:01:21;16.17;;;4.40;;
42682;SDS011;28293;50.930;3.464;2022-11-25T12:07:39;16.50;;;5.30;;
42682;SDS011;28293;50.930;3.464;2022-11-25T12:09:52;17.67;;;5.80;;
42682;SDS011;28293;50.930;3.464;2022-11-25T12:12:24;18.98;;;4.65;;
42682;SDS011;28293;50.930;3.464;2022-11-25T12:15:20;19.48;;;5.30;;
42682;SDS011;28293;50.930;3.464;2022-11-25T12:21:21;17.85;;;4.50;;
42682;SDS011;28293;50.930;3.464;2022-11-25T12:23:56;16.77;;;4.65;;
42682;SDS011;28293;50.930;3.464;2022-11-25T12:26:35;17.35;;;4.63;;
42682;SDS011;28293;50.930;3.464;2022-11-25T12:29:11;20.00;;;4.60;;
42682;SDS011;28293;50.930;3.464;2022-11-25T12:31:45;18.10;;;4.35;;
42682;SDS011;28293;50.930;3.464;2022-11-25T12:34:19;20.48;;;5.00;;
42682;SDS011;28293;50.930;3.464;2022-11-25T12:36:58;22.98;;;4.78;;
42682;SDS011;28293;50.930;3.464;2022-11-25T12:39:31;19.92;;;5.07;;
42682;SDS011;28293;50.930;3.464;2022-11-25T12:42:05;20.02;;;5.18;;
42682;SDS011;28293;50.930;3.464;2022-11-25T12:50:04;19.02;;;5.53;;
42682;SDS011;28293;50.930;3.464;2022-11-25T12:55:24;18.02;;;5.70;;
42682;SDS011;28293;50.930;3.464;2022-11-25T13:04:16;19.00;;;5.97;;
42682;SDS011;28293;50.930;3.464;2022-11-25T13:08:08;19.42;;;5.32;;
42682;SDS011;28293;50.930;3.464;2022-11-25T13:17:43;22.83;;;5.32;;
42682;SDS011;28293;50.930;3.464;2022-11-25T13:20:30;19.75;;;4.95;;
42682;SDS011;28293;50.930;3.464;2022-11-25T13:25:47;18.90;;;4.40;;
42682;SDS011;28293;50.930;3.464;2022-11-25T13:36:19;20.23;;;5.70;;
42682;SDS011;28293;50.930;3.464;2022-11-25T13:44:01;23.27;;;5.88;;
42682;SDS011;28293;50.930;3.464;2022-11-25T13:46:52;19.67;;;6.45;;
42682;SDS011;28293;50.930;3.464;2022-11-25T13:54:54;16.67;;;5.80;;
42682;SDS011;28293;50.930;3.464;2022-11-25T13:57:59;15.88;;;6.18;;
42682;SDS011;28293;50.930;3.464;2022-11-25T14:19:44;16.63;;;5.78;;
42682;SDS011;28293;50.930;3.464;2022-11-25T14:25:31;20.33;;;5.30;;
42682;SDS011;28293;50.930;3.464;2022-11-25T14:28:29;17.80;;;5.80;;
42682;SDS011;28293;50.930;3.464;2022-11-25T14:30:54;18.95;;;6.03;;
42682;SDS011;28293;50.930;3.464;2022-11-25T14:33:29;21.75;;;5.38;;
42682;SDS011;28293;50.930;3.464;2022-11-25T14:39:04;14.57;;;4.32;;
42682;SDS011;28293;50.930;3.464;2022-11-25T14:41:37;14.52;;;4.43;;
42682;SDS011;28293;50.930;3.464;2022-11-25T14:44:09;17.90;;;4.38;;
42682;SDS011;28293;50.930;3.464;2022-11-25T14:46:53;15.23;;;4.25;;
42682;SDS011;28293;50.930;3.464;2022-11-25T14:49:21;19.15;;;4.53;;
42682;SDS011;28293;50.930;3.464;2022-11-25T14:51:47;14.20;;;3.88;;
42682;SDS011;28293;50.930;3.464;2022-11-25T14:54:15;16.15;;;4.32;;
42682;SDS011;28293;50.930;3.464;2022-11-25T14:56:42;21.70;;;4.63;;
42682;SDS011;28293;50.930;3.464;2022-11-25T14:59:08;18.35;;;4.32;;
42682;SDS011;28293;50.930;3.464;2022-11-25T15:01:36;16.00;;;4.28;;
42682;SDS011;28293;50.930;3.464;2022-11-25T15:06:42;13.73;;;3.95;;
42682;SDS011;28293;50.930;3.464;2022-11-25T15:09:18;19.98;;;5.40;;
42682;SDS011;28293;50.930;3.464;2022-11-25T15:11:44;18.10;;;5.20;;
42682;SDS011;28293;50.930;3.464;2022-11-25T15:14:12;17.75;;;4.90;;
42682;SDS011;28293;50.930;3.464;2022-11-25T15:16:55;16.73;;;5.13;;
42682;SDS011;28293;50.930;3.464;2022-11-25T15:19:23;20.60;;;6.35;;
42682;SDS011;28293;50.930;3.464;2022-11-25T15:22:00;19.90;;;6.38;;
42682;SDS011;28293;50.930;3.464;2022-11-25T15:24:42;18.95;;;5.78;;
42682;SDS011;28293;50.930;3.464;2022-11-25T15:27:14;14.43;;;5.90;;
42682;SDS011;28293;50.930;3.464;2022-11-25T15:32:13;23.55;;;10.98;;
42682;SDS011;28293;50.930;3.464;2022-11-25T15:34:42;21.33;;;10.43;;
42682;SDS011;28293;50.930;3.464;2022-11-25T15:37:09;16.27;;;8.68;;
42682;SDS011;28293;50.930;3.464;2022-11-25T15:39:35;20.88;;;8.50;;
42682;SDS011;28293;50.930;3.464;2022-11-25T15:42:03;23.60;;;9.07;;
42682;SDS011;28293;50.930;3.464;2022-11-25T15:44:35;22.42;;;9.07;;
42682;SDS011;28293;50.930;3.464;2022-11-25T15:47:24;22.02;;;8.70;;
42682;SDS011;28293;50.930;3.464;2022-11-25T15:49:59;18.70;;;8.65;;
42682;SDS011;28293;50.930;3.464;2022-11-25T15:52:46;18.02;;;8.38;;
42682;SDS011;28293;50.930;3.464;2022-11-25T15:55:36;18.08;;;7.80;;
42682;SDS011;28293;50.930;3.464;2022-11-25T15:58:03;18.88;;;7.80;;
42682;SDS011;28293;50.930;3.464;2022-11-25T16:00:38;17.63;;;7.00;;
42682;SDS011;28293;50.930;3.464;2022-11-25T16:03:18;23.85;;;7.20;;
42682;SDS011;28293;50.930;3.464;2022-11-25T16:05:55;18.80;;;6.43;;
42682;SDS011;28293;50.930;3.464;2022-11-25T16:08:36;15.18;;;6.38;;
42682;SDS011;28293;50.930;3.464;2022-11-25T16:11:09;18.23;;;6.78;;
42682;SDS011;28293;50.930;3.464;2022-11-25T16:13:39;19.60;;;7.03;;
42682;SDS011;28293;50.930;3.464;2022-11-25T16:21:03;20.05;;;6.95;;
42682;SDS011;28293;50.930;3.464;2022-11-25T16:23:33;19.00;;;7.95;;
42682;SDS011;28293;50.930;3.464;2022-11-25T16:26:04;20.67;;;7.78;;
42682;SDS011;28293;50.930;3.464;2022-11-25T16:28:40;17.80;;;7.57;;
42682;SDS011;28293;50.930;3.464;2022-11-25T16:31:16;30.88;;;9.30;;
42682;SDS011;28293;50.930;3.464;2022-11-25T16:33:42;20.30;;;8.85;;
42682;SDS011;28293;50.930;3.464;2022-11-25T16:36:08;23.42;;;11.07;;
42682;SDS011;28293;50.930;3.464;2022-11-25T16:38:33;21.92;;;11.23;;
42682;SDS011;28293;50.930;3.464;2022-11-25T16:40:59;19.25;;;11.52;;
42682;SDS011;28293;50.930;3.464;2022-11-25T16:43:33;24.23;;;11.77;;
42682;SDS011;28293;50.930;3.464;2022-11-25T16:46:03;25.85;;;12.80;;
42682;SDS011;28293;50.930;3.464;2022-11-25T16:48:29;23.25;;;12.93;;
42682;SDS011;28293;50.930;3.464;2022-11-25T16:50:55;21.75;;;11.93;;
42682;SDS011;28293;50.930;3.464;2022-11-25T16:53:21;24.73;;;11.20;;
42682;SDS011;28293;50.930;3.464;2022-11-25T16:55:47;24.38;;;9.88;;
42682;SDS011;28293;50.930;3.464;2022-11-25T16:58:20;21.92;;;10.50;;
42682;SDS011;28293;50.930;3.464;2022-11-25T17:03:15;24.50;;;9.32;;
42682;SDS011;28293;50.930;3.464;2022-11-25T17:05:42;22.02;;;9.07;;
42682;SDS011;28293;50.930;3.464;2022-11-25T17:08:08;21.95;;;10.15;;
42682;SDS011;28293;50.930;3.464;2022-11-25T17:10:33;20.10;;;10.77;;
42682;SDS011;28293;50.930;3.464;2022-11-25T17:12:59;21.60;;;12.27;;
42682;SDS011;28293;50.930;3.464;2022-11-25T17:15:31;23.40;;;11.98;;
42682;SDS011;28293;50.930;3.464;2022-11-25T17:17:59;24.08;;;11.75;;
42682;SDS011;28293;50.930;3.464;2022-11-25T17:20:26;23.75;;;12.43;;
42682;SDS011;28293;50.930;3.464;2022-11-25T17:22:52;22.83;;;12.40;;
42682;SDS011;28293;50.930;3.464;2022-11-25T17:25:18;24.58;;;13.43;;
42682;SDS011;28293;50.930;3.464;2022-11-25T17:27:47;20.05;;;12.88;;